Time;durP1;ratioP1;P1;durP2;ratioP2;P2;SDS_P1;SDS_P2;PMS_P1;PMS_P2;Temp;Humidity;BMP_temperature;BMP_pressure;BME280_temperature;BME280_humidity;BME280_pressure;Samples;Min_cycle;Max_cycle;Signal;HPM_P1;HPM_P2
2022/03/30 00:01:58;;;;;;;20.20;9.10;;;9.10;99.90;;;;;;4999637;28;20113;-91
2022/03/30 00:04:24;;;;;;;19.52;9.60;;;9.10;99.90;;;;;;5018456;28;20061;-91
2022/03/30 00:06:58;;;;;;;15.15;9.48;;;9.10;99.90;;;;;;5000111;28;20111;-91
2022/03/30 00:09:27;;;;;;;17.77;10.35;;;9.10;99.90;;;;;;5022387;28;20029;-92
2022/03/30 00:11:56;;;;;;;18.05;10.35;;;9.10;99.90;;;;;;4994435;28;20048;-93
2022/03/30 00:14:22;;;;;;;19.42;9.57;;;9.10;99.90;;;;;;5023994;28;20537;-93
2022/03/30 00:16:57;;;;;;;21.65;10.57;;;9.00;99.90;;;;;;5019675;28;20045;-92
2022/03/30 00:19:32;;;;;;;21.58;10.98;;;8.90;99.90;;;;;;5020570;28;20026;-93
2022/03/30 00:21:58;;;;;;;19.33;11.07;;;8.90;99.90;;;;;;5001335;28;20026;-93
2022/03/30 00:24:43;;;;;;;22.65;10.57;;;8.80;99.90;;;;;;5008924;28;20028;-93
2022/03/30 00:27:23;;;;;;;20.08;11.35;;;8.80;99.90;;;;;;5038385;28;20033;-93
2022/03/30 00:30:00;;;;;;;18.33;10.95;;;8.80;99.90;;;;;;5009652;28;20045;-93
2022/03/30 00:32:26;;;;;;;25.30;11.15;;;8.70;99.90;;;;;;5010508;28;20034;-89
2022/03/30 00:34:52;;;;;;;20.88;11.23;;;8.70;99.90;;;;;;5008265;28;20129;-89
2022/03/30 00:37:18;;;;;;;26.60;12.95;;;8.80;99.90;;;;;;5025522;28;20026;-89
2022/03/30 00:39:44;;;;;;;20.38;11.27;;;8.80;99.90;;;;;;5006434;28;20026;-89
2022/03/30 00:42:17;;;;;;;19.80;11.85;;;8.80;99.90;;;;;;5022445;28;20087;-88
2022/03/30 00:44:49;;;;;;;25.92;11.68;;;8.80;99.90;;;;;;5005899;28;20095;-89
2022/03/30 00:47:29;;;;;;;20.25;11.10;;;8.80;99.90;;;;;;5011956;28;20044;-88
2022/03/30 00:49:55;;;;;;;22.25;11.18;;;8.90;99.90;;;;;;5024864;28;20029;-88
2022/03/30 00:52:24;;;;;;;19.95;11.25;;;9.00;99.90;;;;;;5006870;28;20088;-89
2022/03/30 00:55:07;;;;;;;21.60;11.27;;;9.20;99.90;;;;;;5027226;28;20040;-88
2022/03/30 00:57:37;;;;;;;26.08;11.60;;;9.50;99.90;;;;;;4997234;28;20025;-88
2022/03/30 01:00:09;;;;;;;15.95;10.68;;;9.50;99.90;;;;;;5006800;28;20038;-88
2022/03/30 01:02:52;;;;;;;21.73;10.70;;;9.60;99.90;;;;;;5025036;28;20029;-88
2022/03/30 01:05:24;;;;;;;23.35;10.50;;;9.60;99.90;;;;;;5003529;28;20117;-88
2022/03/30 01:07:50;;;;;;;25.30;11.57;;;9.40;99.90;;;;;;5019522;28;20029;-88
2022/03/30 01:10:20;;;;;;;21.30;12.15;;;9.30;99.90;;;;;;5022818;28;20423;-88
2022/03/30 01:12:48;;;;;;;22.08;11.88;;;9.30;99.90;;;;;;5019370;28;20034;-88
2022/03/30 01:15:17;;;;;;;24.17;12.13;;;9.30;99.90;;;;;;5001493;28;20061;-89
2022/03/30 01:17:46;;;;;;;25.17;11.27;;;9.30;99.90;;;;;;4996847;28;20040;-89
2022/03/30 01:20:21;;;;;;;23.58;11.32;;;9.20;99.90;;;;;;5014912;28;20053;-88
2022/03/30 01:23:18;;;;;;;24.17;11.65;;;9.20;99.90;;;;;;5026924;28;20018;-88
2022/03/30 01:25:44;;;;;;;24.30;12.50;;;9.10;99.90;;;;;;5019529;28;20432;-89
2022/03/30 01:28:15;;;;;;;27.08;12.80;;;9.10;99.90;;;;;;5002051;28;20120;-87
2022/03/30 01:33:50;;;;;;;;;;;9.00;99.90;;;;;;5012824;28;20056;-88
2022/03/30 01:36:17;;;;;;;32.42;12.27;;;8.90;99.90;;;;;;5021276;28;20040;-88
2022/03/30 01:38:48;;;;;;;27.48;12.45;;;8.90;99.90;;;;;;4996799;28;20026;-88
2022/03/30 01:41:20;;;;;;;25.50;11.93;;;8.80;99.90;;;;;;5010316;28;20022;-88
2022/03/30 01:43:48;;;;;;;27.27;11.90;;;8.80;99.90;;;;;;5019857;28;20848;-88
2022/03/30 01:46:16;;;;;;;21.58;11.23;;;8.70;99.90;;;;;;5020961;28;20044;-88
2022/03/30 01:48:42;;;;;;;25.80;9.95;;;8.70;99.90;;;;;;5017303;28;20040;-89
2022/03/30 01:51:17;;;;;;;14.82;9.55;;;8.70;99.90;;;;;;5009855;28;20477;-89
2022/03/30 01:54:03;;;;;;;20.02;9.43;;;8.70;99.90;;;;;;5025559;28;20045;-86
2022/03/30 01:56:32;;;;;;;15.25;9.48;;;8.70;99.90;;;;;;5002349;28;20109;-90
2022/03/30 01:59:01;;;;;;;19.05;8.98;;;8.60;99.90;;;;;;4995187;28;20579;-90
2022/03/30 02:01:30;;;;;;;25.85;10.57;;;8.60;99.90;;;;;;5014337;28;20116;-91
2022/03/30 02:04:02;;;;;;;20.17;10.52;;;8.60;99.90;;;;;;5023700;28;20025;-90
2022/03/30 02:06:30;;;;;;;21.88;10.40;;;8.50;99.90;;;;;;5008622;28;20029;-90
2022/03/30 02:09:05;;;;;;;22.88;10.75;;;8.50;99.90;;;;;;5020101;28;20116;-89
2022/03/30 02:11:31;;;;;;;19.63;10.70;;;8.50;99.90;;;;;;5017947;28;20073;-90
2022/03/30 02:14:06;;;;;;;22.88;10.35;;;8.50;99.90;;;;;;5024573;28;20034;-91
2022/03/30 02:16:38;;;;;;;21.98;10.50;;;8.50;99.90;;;;;;5001908;28;20060;-91
2022/03/30 02:19:04;;;;;;;27.13;11.07;;;8.50;99.90;;;;;;5012443;28;20109;-93
2022/03/30 02:21:59;;;;;;;18.17;9.77;;;8.50;99.90;;;;;;5004570;28;20109;-93
2022/03/30 02:24:28;;;;;;;25.45;11.45;;;8.50;99.90;;;;;;4995687;28;20037;-95
2022/03/30 02:27:27;;;;;;;23.63;10.75;;;8.50;99.90;;;;;;4996197;28;20049;-90
2022/03/30 02:30:13;;;;;;;16.23;9.68;;;8.50;99.90;;;;;;5001770;28;20047;-90
2022/03/30 02:32:52;;;;;;;21.13;10.38;;;8.40;99.90;;;;;;5003305;28;20129;-90
2022/03/30 02:35:41;;;;;;;20.45;10.85;;;8.50;99.90;;;;;;5001443;28;20034;-89
2022/03/30 02:38:31;;;;;;;20.70;10.30;;;8.50;99.90;;;;;;5005902;28;20382;-89
2022/03/30 02:41:09;;;;;;;16.90;10.45;;;8.40;99.90;;;;;;4998086;28;20055;-89
2022/03/30 02:43:36;;;;;;;20.83;10.48;;;8.40;99.90;;;;;;5020934;28;20021;-87
2022/03/30 02:46:46;;;;;;;13.95;9.38;;;8.30;99.90;;;;;;5028164;28;20033;-89
2022/03/30 02:52:05;;;;;;;24.48;10.77;;;8.30;99.90;;;;;;5001071;28;20034;-88
2022/03/30 02:54:36;;;;;;;20.17;10.30;;;8.30;99.90;;;;;;4990011;28;20141;-89
2022/03/30 02:57:07;;;;;;;21.90;10.77;;;8.30;99.90;;;;;;4994314;28;20034;-89
2022/03/30 03:00:04;;;;;;;23.73;10.27;;;8.30;99.90;;;;;;5018453;28;20108;-89
2022/03/30 03:02:39;;;;;;;14.65;9.48;;;8.30;99.90;;;;;;4991417;28;20654;-90
2022/03/30 03:05:08;;;;;;;22.08;10.63;;;8.30;99.90;;;;;;5000298;28;20030;-89
2022/03/30 03:07:34;;;;;;;22.00;10.15;;;8.20;99.90;;;;;;5027461;28;20042;-90
2022/03/30 03:10:06;;;;;;;17.42;9.95;;;8.30;99.90;;;;;;5013934;28;20036;-91
2022/03/30 03:12:33;;;;;;;22.50;9.82;;;8.30;99.90;;;;;;4995900;28;20515;-89
2022/03/30 03:15:04;;;;;;;19.40;9.93;;;8.30;99.90;;;;;;5006063;28;20492;-89
2022/03/30 03:17:32;;;;;;;18.00;10.45;;;8.30;99.90;;;;;;5013710;28;20057;-92
2022/03/30 03:20:11;;;;;;;15.68;9.57;;;8.30;99.90;;;;;;5022044;28;20111;-92
2022/03/30 03:22:46;;;;;;;14.55;9.93;;;8.40;99.90;;;;;;5015570;28;20022;-89
2022/03/30 03:25:16;;;;;;;14.80;10.75;;;8.40;99.90;;;;;;5004688;28;20026;-92
2022/03/30 03:28:06;;;;;;;24.10;10.88;;;8.40;99.90;;;;;;4996189;28;20022;-92
2022/03/30 03:30:40;;;;;;;17.00;10.15;;;8.40;99.90;;;;;;5024068;28;20506;-91
2022/03/30 03:33:10;;;;;;;24.25;10.48;;;8.50;99.90;;;;;;5005106;28;20088;-93
2022/03/30 03:35:38;;;;;;;18.67;10.85;;;8.70;99.90;;;;;;5007138;28;20075;-94
2022/03/30 03:38:08;;;;;;;16.83;11.63;;;8.80;99.90;;;;;;5021278;28;20034;-94
2022/03/30 03:40:35;;;;;;;19.05;10.23;;;8.90;99.90;;;;;;5003883;28;20017;-93
2022/03/30 03:43:02;;;;;;;19.08;9.73;;;9.00;99.90;;;;;;5006238;28;20033;-93
2022/03/30 03:45:29;;;;;;;20.98;10.45;;;9.00;99.90;;;;;;4997382;28;20029;-94
2022/03/30 03:47:57;;;;;;;28.48;11.10;;;9.00;99.90;;;;;;5014688;28;20080;-93
2022/03/30 03:50:32;;;;;;;21.02;10.40;;;9.00;99.90;;;;;;5015629;28;20036;-93
2022/03/30 03:52:58;;;;;;;19.70;9.55;;;9.10;99.90;;;;;;4999148;28;20070;-92
2022/03/30 03:55:34;;;;;;;20.73;10.02;;;9.20;99.90;;;;;;5005016;28;20022;-94
2022/03/30 03:58:04;;;;;;;15.00;9.50;;;9.20;99.90;;;;;;5015073;28;20018;-90
2022/03/30 04:00:31;;;;;;;24.30;10.63;;;9.20;99.90;;;;;;5025949;28;20049;-91
2022/03/30 04:02:56;;;;;;;21.10;10.82;;;9.30;99.90;;;;;;5012630;28;20033;-92
2022/03/30 04:05:26;;;;;;;21.08;10.20;;;9.30;99.90;;;;;;5022908;28;20071;-92
2022/03/30 04:07:51;;;;;;;18.65;9.60;;;9.40;99.90;;;;;;5005232;28;20033;-92
2022/03/30 04:10:18;;;;;;;17.67;9.45;;;9.60;99.90;;;;;;5034405;28;20080;-92
2022/03/30 04:12:44;;;;;;;23.05;10.10;;;9.60;99.90;;;;;;4999798;28;20092;-91
2022/03/30 04:15:10;;;;;;;15.00;9.55;;;9.70;99.90;;;;;;5007022;28;20118;-93
2022/03/30 04:17:47;;;;;;;15.80;10.55;;;9.70;99.90;;;;;;5004966;28;20481;-92
2022/03/30 04:20:14;;;;;;;28.58;10.48;;;9.80;99.90;;;;;;5000026;28;20394;-92
2022/03/30 04:22:41;;;;;;;22.20;10.30;;;9.80;99.90;;;;;;5015791;28;20408;-93
2022/03/30 04:25:08;;;;;;;16.95;10.07;;;9.90;99.90;;;;;;5018874;28;20030;-93
2022/03/30 04:27:34;;;;;;;26.95;10.77;;;10.00;99.90;;;;;;5019884;28;20026;-93
2022/03/30 04:30:09;;;;;;;19.80;10.45;;;10.00;99.90;;;;;;5008037;28;20169;-93
2022/03/30 04:32:35;;;;;;;21.90;10.43;;;10.00;99.90;;;;;;5019025;28;20029;-92
2022/03/30 04:35:01;;;;;;;21.60;10.90;;;10.00;99.90;;;;;;5026280;28;20029;-92
2022/03/30 04:37:27;;;;;;;19.27;10.60;;;10.00;99.90;;;;;;5019005;28;20093;-93
2022/03/30 04:39:52;;;;;;;23.15;11.13;;;10.00;99.90;;;;;;5017454;28;20084;-90
2022/03/30 04:42:20;;;;;;;21.73;10.98;;;10.00;99.90;;;;;;5010902;28;20084;-91
2022/03/30 04:44:46;;;;;;;23.00;10.13;;;10.10;99.90;;;;;;5022597;28;20477;-92
2022/03/30 04:47:12;;;;;;;23.75;10.63;;;10.30;99.90;;;;;;5001449;28;20033;-91
2022/03/30 04:49:38;;;;;;;27.10;10.82;;;10.30;99.90;;;;;;5019993;28;20101;-91
2022/03/30 04:52:04;;;;;;;17.17;10.88;;;10.30;99.90;;;;;;5020006;28;20034;-93
2022/03/30 04:54:30;;;;;;;24.60;10.32;;;10.30;99.90;;;;;;5017438;28;20585;-90
2022/03/30 04:56:55;;;;;;;20.00;9.93;;;10.70;99.90;;;;;;5015610;28;20117;-91
2022/03/30 04:59:21;;;;;;;24.33;9.90;;;10.80;99.90;;;;;;5015977;28;20025;-90
2022/03/30 05:01:47;;;;;;;18.58;9.82;;;10.80;99.90;;;;;;5009677;28;20031;-91
2022/03/30 05:04:12;;;;;;;18.98;9.80;;;10.80;99.90;;;;;;5013467;28;20037;-93
2022/03/30 05:06:38;;;;;;;19.52;10.55;;;10.90;99.90;;;;;;5039232;28;20045;-91
2022/03/30 05:09:06;;;;;;;17.35;9.95;;;10.90;99.90;;;;;;5023238;28;20094;-91
2022/03/30 05:11:32;;;;;;;21.15;10.77;;;10.90;99.90;;;;;;5023345;28;20041;-90
2022/03/30 05:13:58;;;;;;;15.35;9.65;;;10.90;99.90;;;;;;5019589;28;20033;-90
2022/03/30 05:16:24;;;;;;;20.55;10.65;;;10.90;99.90;;;;;;5025591;28;20049;-92
2022/03/30 05:18:50;;;;;;;18.63;9.43;;;11.00;99.90;;;;;;5019726;28;20048;-92
2022/03/30 05:21:16;;;;;;;20.58;10.20;;;11.00;99.90;;;;;;5021461;28;20026;-91
2022/03/30 05:23:41;;;;;;;17.48;10.35;;;11.10;99.90;;;;;;5008564;28;20041;-88
2022/03/30 05:26:07;;;;;;;29.80;10.48;;;11.10;99.90;;;;;;5021700;28;20027;-89
2022/03/30 05:28:38;;;;;;;22.20;9.70;;;11.20;99.90;;;;;;5013506;28;20018;-91
2022/03/30 05:31:05;;;;;;;22.13;10.05;;;11.20;99.90;;;;;;5022224;28;20045;-94
2022/03/30 05:33:30;;;;;;;21.00;10.48;;;11.20;99.90;;;;;;5005547;28;20360;-95
2022/03/30 05:35:56;;;;;;;25.92;9.98;;;11.30;99.90;;;;;;5031005;28;20022;-95
2022/03/30 05:38:22;;;;;;;22.08;9.95;;;11.40;99.90;;;;;;5040268;28;20029;-95
2022/03/30 05:40:50;;;;;;;21.98;10.77;;;11.40;99.90;;;;;;5152672;23;20072;-96
2022/03/30 05:43:18;;;;;;;22.77;11.00;;;11.50;99.90;;;;;;5075723;28;20036;-94
2022/03/30 05:48:12;;;;;;;33.85;15.27;;;11.50;99.90;;;;;;5036781;28;20413;-91
2022/03/30 05:50:39;;;;;;;19.63;10.27;;;11.50;99.90;;;;;;5036741;28;20025;-91
2022/03/30 05:53:06;;;;;;;31.17;12.15;;;11.60;99.90;;;;;;5023778;28;20043;-94
2022/03/30 05:55:32;;;;;;;18.98;9.27;;;11.70;99.90;;;;;;5037388;28;20024;-93
2022/03/30 05:57:58;;;;;;;15.07;9.35;;;11.80;99.90;;;;;;5039754;28;21755;-92
2022/03/30 06:00:24;;;;;;;19.70;9.98;;;11.90;99.90;;;;;;5042356;28;20021;-92
2022/03/30 06:02:50;;;;;;;27.67;9.38;;;11.90;99.90;;;;;;5038954;28;20025;-87
2022/03/30 06:05:16;;;;;;;19.67;9.20;;;11.90;99.90;;;;;;5032488;28;20025;-85
2022/03/30 06:07:45;;;;;;;20.95;9.75;;;12.00;99.90;;;;;;5015908;28;20116;-86
2022/03/30 06:10:11;;;;;;;26.45;11.00;;;12.00;99.90;;;;;;5034015;28;20022;-89
2022/03/30 06:12:36;;;;;;;37.92;15.20;;;12.10;99.90;;;;;;5018191;28;20067;-86
2022/03/30 06:15:04;;;;;;;24.95;9.13;;;12.20;99.90;;;;;;5019580;28;20017;-90
2022/03/30 06:17:30;;;;;;;24.88;9.23;;;12.20;99.90;;;;;;5034818;28;20038;-91
2022/03/30 06:19:59;;;;;;;19.00;9.02;;;12.20;99.90;;;;;;5020403;28;20557;-90
2022/03/30 06:22:29;;;;;;;24.52;9.02;;;12.30;99.90;;;;;;5018691;28;20026;-91
2022/03/30 06:24:55;;;;;;;19.13;8.90;;;12.40;99.90;;;;;;5033458;28;20025;-90
2022/03/30 06:27:22;;;;;;;24.90;8.98;;;12.40;99.90;;;;;;5013135;28;20029;-90
2022/03/30 06:29:48;;;;;;;17.90;8.90;;;12.40;99.90;;;;;;5036497;28;20048;-83
2022/03/30 06:32:14;;;;;;;17.30;9.20;;;12.50;99.90;;;;;;5035929;28;20056;-86
2022/03/30 06:34:40;;;;;;;21.83;11.70;;;12.60;99.90;;;;;;5013870;28;20399;-87
2022/03/30 06:37:06;;;;;;;24.80;8.77;;;12.60;99.90;;;;;;5031213;28;20029;-86
2022/03/30 06:39:35;;;;;;;35.17;13.57;;;12.70;99.90;;;;;;5028907;28;20027;-88
2022/03/30 06:42:01;;;;;;;28.98;11.10;;;12.70;99.90;;;;;;5011530;28;20021;-87
2022/03/30 06:44:27;;;;;;;23.10;9.88;;;12.80;99.90;;;;;;5029990;28;20124;-87
2022/03/30 06:46:52;;;;;;;24.67;9.45;;;12.90;99.90;;;;;;5029435;28;20683;-87
2022/03/30 06:49:19;;;;;;;32.40;13.07;;;13.00;99.90;;;;;;5029960;28;20033;-87
2022/03/30 06:51:44;;;;;;;83.10;59.88;;;13.10;99.90;;;;;;5032581;28;20033;-86
2022/03/30 06:54:10;;;;;;;58.92;38.78;;;13.20;99.90;;;;;;5031180;28;20036;-85
2022/03/30 06:56:36;;;;;;;47.83;26.75;;;13.20;99.90;;;;;;5016473;28;20234;-87
2022/03/30 06:59:01;;;;;;;45.50;24.52;;;13.20;99.90;;;;;;5016585;28;20029;-87
2022/03/30 07:01:27;;;;;;;33.13;17.33;;;13.20;99.90;;;;;;5015633;28;20112;-88
2022/03/30 07:03:56;;;;;;;21.48;10.68;;;13.20;99.90;;;;;;5012202;28;20025;-86
2022/03/30 07:06:21;;;;;;;30.77;18.17;;;13.20;99.90;;;;;;5028361;28;20074;-87
2022/03/30 07:11:31;;;;;;;41.58;23.92;;;13.20;99.90;;;;;;5031355;28;20087;-87
2022/03/30 07:13:58;;;;;;;23.25;9.95;;;13.20;99.90;;;;;;5028936;28;20435;-85
2022/03/30 07:16:24;;;;;;;39.60;19.02;;;13.20;99.90;;;;;;5013474;28;20017;-86
2022/03/30 07:18:50;;;;;;;22.25;12.00;;;13.20;99.90;;;;;;5030706;28;20021;-86
2022/03/30 07:21:16;;;;;;;22.75;8.90;;;13.20;99.90;;;;;;5019610;28;20026;-86
2022/03/30 07:23:42;;;;;;;17.27;8.38;;;13.20;99.90;;;;;;5031637;28;20112;-86
2022/03/30 07:26:08;;;;;;;22.55;9.02;;;13.30;99.90;;;;;;5039238;28;20079;-85
2022/03/30 07:28:37;;;;;;;32.10;9.30;;;13.30;99.90;;;;;;5033192;28;20037;-87
2022/03/30 07:31:03;;;;;;;20.48;8.20;;;13.30;99.90;;;;;;5013704;28;20047;-85
2022/03/30 07:33:32;;;;;;;16.83;7.95;;;13.30;99.90;;;;;;5038604;28;20041;-88
2022/03/30 07:35:58;;;;;;;22.33;10.77;;;13.40;99.90;;;;;;5012887;28;20041;-87
2022/03/30 07:38:24;;;;;;;25.33;8.30;;;13.40;99.90;;;;;;5032325;28;20034;-85
2022/03/30 07:40:50;;;;;;;19.92;8.02;;;13.40;99.90;;;;;;5034239;28;20022;-86
2022/03/30 07:43:17;;;;;;;22.85;7.68;;;13.40;99.90;;;;;;5019611;28;20528;-86
2022/03/30 07:45:43;;;;;;;24.08;8.90;;;13.40;99.90;;;;;;5018866;28;20025;-87
2022/03/30 07:48:09;;;;;;;20.30;8.50;;;13.40;99.90;;;;;;5038072;28;20056;-85
2022/03/30 07:50:36;;;;;;;16.73;8.48;;;13.40;99.90;;;;;;5036693;28;20484;-86
2022/03/30 07:53:03;;;;;;;19.02;7.55;;;13.60;99.90;;;;;;5031981;28;20512;-84
2022/03/30 07:55:29;;;;;;;24.60;9.05;;;13.60;99.90;;;;;;5036202;28;20489;-86
2022/03/30 07:57:55;;;;;;;18.90;7.45;;;13.70;99.90;;;;;;5038865;28;20037;-86
2022/03/30 08:00:22;;;;;;;20.88;8.45;;;13.80;99.90;;;;;;5037459;28;20129;-87
2022/03/30 08:02:49;;;;;;;25.35;8.00;;;13.90;99.90;;;;;;5037652;28;20025;-87
2022/03/30 08:05:15;;;;;;;29.77;8.45;;;14.00;99.90;;;;;;5033428;28;20029;-87
2022/03/30 08:07:43;;;;;;;24.17;7.93;;;14.10;99.90;;;;;;5035699;28;20642;-86
2022/03/30 08:10:10;;;;;;;22.10;7.68;;;14.20;99.90;;;;;;5019578;28;20025;-87
2022/03/30 08:12:37;;;;;;;19.35;8.30;;;14.30;99.90;;;;;;5020553;28;20042;-86
2022/03/30 08:15:03;;;;;;;17.90;8.73;;;14.40;99.90;;;;;;5037137;28;20036;-86
2022/03/30 08:17:29;;;;;;;20.48;7.50;;;14.50;99.90;;;;;;5036765;28;20032;-86
2022/03/30 08:19:57;;;;;;;23.63;7.50;;;14.70;99.90;;;;;;5037017;28;20081;-87
2022/03/30 08:22:26;;;;;;;27.25;8.90;;;14.70;99.90;;;;;;5022694;28;20034;-87
2022/03/30 08:25:00;;;;;;;20.95;8.20;;;14.80;99.90;;;;;;5042725;28;20017;-87
2022/03/30 08:27:30;;;;;;;23.90;8.15;;;14.90;99.90;;;;;;5040351;28;20010;-85
2022/03/30 08:29:58;;;;;;;15.38;7.95;;;14.90;99.90;;;;;;5021454;28;20481;-86
2022/03/30 08:32:24;;;;;;;19.90;9.00;;;14.90;99.90;;;;;;5019769;28;20041;-87
2022/03/30 08:34:51;;;;;;;21.02;9.25;;;14.90;99.90;;;;;;5014992;28;20026;-85
2022/03/30 08:37:18;;;;;;;19.80;7.82;;;14.90;99.90;;;;;;5034773;28;20120;-87
2022/03/30 08:39:44;;;;;;;25.88;7.80;;;14.80;99.90;;;;;;5032728;28;20025;-87
2022/03/30 08:42:11;;;;;;;23.15;7.30;;;14.90;99.90;;;;;;5035061;28;20099;-87
2022/03/30 08:44:37;;;;;;;18.38;7.07;;;14.90;99.90;;;;;;5016856;28;20028;-87
2022/03/30 08:47:04;;;;;;;28.25;7.25;;;15.00;99.90;;;;;;5034762;28;20038;-87
2022/03/30 08:49:34;;;;;;;13.60;7.35;;;15.10;99.90;;;;;;5034803;28;20033;-87
2022/03/30 08:52:01;;;;;;;19.75;7.53;;;15.20;99.90;;;;;;5016243;28;20234;-86
2022/03/30 08:54:27;;;;;;;21.63;7.55;;;15.30;99.90;;;;;;5033160;28;20021;-87
2022/03/30 08:56:53;;;;;;;17.58;7.10;;;15.30;99.90;;;;;;5034250;28;20159;-87
2022/03/30 08:59:21;;;;;;;25.60;8.77;;;15.40;99.90;;;;;;5034402;28;20021;-86
2022/03/30 09:01:49;;;;;;;30.60;8.40;;;15.50;99.90;;;;;;5017939;28;20021;-87
2022/03/30 09:04:16;;;;;;;19.95;8.07;;;15.50;99.90;;;;;;5033957;28;20032;-87
2022/03/30 09:06:45;;;;;;;25.20;7.53;;;15.50;99.90;;;;;;5033960;28;20108;-87
2022/03/30 09:09:11;;;;;;;14.80;6.68;;;15.50;99.90;;;;;;5032401;28;20021;-92
2022/03/30 09:11:44;;;;;;;22.80;6.80;;;15.60;99.90;;;;;;5036793;28;20069;-92
2022/03/30 09:14:11;;;;;;;14.02;6.95;;;15.60;99.90;;;;;;5018105;28;20388;-89
2022/03/30 09:16:41;;;;;;;23.38;6.63;;;15.60;99.90;;;;;;5015272;28;20018;-89
2022/03/30 09:19:09;;;;;;;19.92;7.22;;;15.60;99.90;;;;;;5016785;28;20036;-88
2022/03/30 09:21:40;;;;;;;18.77;6.60;;;15.70;99.90;;;;;;5043921;28;20021;-92
2022/03/30 09:24:07;;;;;;;21.45;7.80;;;15.80;99.90;;;;;;5322887;22;20057;-92
2022/03/30 09:26:33;;;;;;;21.70;7.13;;;15.90;99.90;;;;;;5019263;28;20033;-86
2022/03/30 09:29:00;;;;;;;14.70;6.65;;;15.90;99.90;;;;;;5050245;28;20588;-86
2022/03/30 09:31:27;;;;;;;18.23;7.60;;;15.80;99.90;;;;;;5020414;28;20049;-84
2022/03/30 09:33:55;;;;;;;24.85;7.80;;;15.70;99.90;;;;;;5032568;28;20030;-84
2022/03/30 09:36:32;;;;;;;22.45;7.20;;;15.70;99.90;;;;;;5032180;28;20080;-85
2022/03/30 09:38:58;;;;;;;16.05;7.38;;;15.60;99.90;;;;;;5015487;28;20029;-87
2022/03/30 09:41:24;;;;;;;15.18;7.00;;;15.60;99.90;;;;;;5016275;28;20029;-87
2022/03/30 09:44:03;;;;;;;25.70;6.70;;;15.60;99.90;;;;;;5013840;28;20033;-88
2022/03/30 09:46:30;;;;;;;15.48;6.72;;;15.50;99.90;;;;;;5035626;28;20104;-87
2022/03/30 09:48:57;;;;;;;18.60;7.47;;;15.60;99.90;;;;;;5032909;28;20030;-86
2022/03/30 09:51:25;;;;;;;17.20;6.90;;;15.80;99.90;;;;;;5007652;28;20076;-85
2022/03/30 09:53:51;;;;;;;16.35;7.00;;;15.90;99.90;;;;;;5032402;28;20451;-85
2022/03/30 09:56:22;;;;;;;15.95;6.90;;;16.10;99.90;;;;;;5017942;28;20056;-84
2022/03/30 09:58:49;;;;;;;16.13;6.38;;;16.20;99.90;;;;;;5017873;28;20049;-91
2022/03/30 10:01:32;;;;;;;25.85;7.15;;;16.50;99.90;;;;;;5037675;28;20064;-87
2022/03/30 10:04:02;;;;;;;19.08;6.43;;;16.70;99.90;;;;;;5012099;28;20029;-94
2022/03/30 10:06:34;;;;;;;16.90;7.03;;;16.90;99.90;;;;;;5020199;28;20104;-92
2022/03/30 10:09:00;;;;;;;18.38;8.30;;;17.00;99.90;;;;;;5017941;28;20029;-86
2022/03/30 10:11:33;;;;;;;32.05;7.82;;;16.90;99.90;;;;;;5018956;28;20029;-94
2022/03/30 10:14:00;;;;;;;96.82;28.45;;;16.60;99.90;;;;;;5022721;28;20044;-87
2022/03/30 10:16:29;;;;;;;19.42;7.07;;;16.40;99.90;;;;;;5041717;28;20021;-93
2022/03/30 10:18:56;;;;;;;17.15;7.93;;;16.20;99.90;;;;;;5034048;28;20025;-86
2022/03/30 10:21:24;;;;;;;19.27;7.07;;;16.10;99.90;;;;;;5036050;28;20112;-86
2022/03/30 10:24:05;;;;;;;36.85;12.27;;;16.00;99.90;;;;;;5013346;28;20144;-86
2022/03/30 10:26:41;;;;;;;47.15;14.05;;;16.00;99.90;;;;;;5031897;28;20021;-85
2022/03/30 10:29:09;;;;;;;18.98;6.78;;;16.00;99.90;;;;;;5031974;28;20018;-86
2022/03/30 10:31:35;;;;;;;21.02;7.35;;;16.00;99.90;;;;;;5033363;28;20107;-86
2022/03/30 10:34:27;;;;;;;19.05;7.28;;;16.00;99.90;;;;;;5016467;28;20492;-87
2022/03/30 10:37:09;;;;;;;19.40;7.18;;;15.90;99.90;;;;;;5033010;28;20030;-87
2022/03/30 10:39:55;;;;;;;19.80;6.95;;;16.00;99.90;;;;;;5019284;28;20041;-83
2022/03/30 10:42:21;;;;;;;22.38;6.25;;;15.80;99.90;;;;;;5015390;28;20036;-84
2022/03/30 10:44:49;;;;;;;16.30;6.43;;;15.60;99.90;;;;;;5032433;28;20025;-84
2022/03/30 10:47:21;;;;;;;17.23;7.28;;;15.40;99.90;;;;;;5020862;28;20064;-84
2022/03/30 10:49:54;;;;;;;20.65;8.00;;;15.30;99.90;;;;;;5033150;28;20099;-84
2022/03/30 10:52:39;;;;;;;36.38;13.35;;;15.20;99.90;;;;;;5033565;28;20041;-84
2022/03/30 10:55:14;;;;;;;23.13;8.00;;;15.30;99.90;;;;;;5028395;28;20031;-85
2022/03/30 10:57:44;;;;;;;109.70;29.88;;;15.50;99.90;;;;;;5034887;28;20029;-83
2022/03/30 11:00:20;;;;;;;17.55;7.65;;;15.60;99.90;;;;;;5031856;28;20033;-84
2022/03/30 11:02:46;;;;;;;24.23;7.88;;;15.70;99.90;;;;;;5039751;28;20103;-84
2022/03/30 11:05:14;;;;;;;23.02;8.15;;;15.80;99.90;;;;;;5014736;28;20029;-84
2022/03/30 11:07:40;;;;;;;17.63;7.88;;;16.00;99.90;;;;;;5031260;28;20385;-84
2022/03/30 11:10:21;;;;;;;20.23;7.20;;;16.20;99.90;;;;;;5014107;28;20587;-83
2022/03/30 11:13:00;;;;;;;18.83;7.45;;;16.30;99.90;;;;;;5031065;28;20083;-84
2022/03/30 11:15:26;;;;;;;28.50;7.63;;;16.40;99.90;;;;;;5032271;28;20029;-82
2022/03/30 11:17:52;;;;;;;20.23;6.95;;;16.20;99.90;;;;;;5031472;28;20043;-83
2022/03/30 11:20:19;;;;;;;22.70;6.22;;;16.10;99.90;;;;;;5030998;28;20017;-84
2022/03/30 11:22:46;;;;;;;17.13;6.80;;;16.10;99.90;;;;;;5031239;28;20018;-85
2022/03/30 11:25:23;;;;;;;21.50;7.03;;;16.30;99.90;;;;;;5031149;28;20047;-84
2022/03/30 11:27:58;;;;;;;18.48;6.82;;;16.40;99.90;;;;;;5031074;28;20038;-84
2022/03/30 11:30:31;;;;;;;20.27;6.78;;;16.60;99.90;;;;;;5030906;28;20044;-84
2022/03/30 11:33:19;;;;;;;23.92;7.18;;;16.50;99.90;;;;;;5031082;28;20037;-84
2022/03/30 11:35:48;;;;;;;17.00;6.00;;;16.50;99.90;;;;;;5012822;28;20024;-84
2022/03/30 11:38:32;;;;;;;23.60;6.82;;;16.70;99.90;;;;;;5037437;28;20029;-84
2022/03/30 11:41:06;;;;;;;20.95;6.78;;;16.80;99.90;;;;;;5018959;28;20028;-87
2022/03/30 11:45:12;;;;;;;23.27;7.03;;;16.90;99.90;;;;;;5033053;28;20510;-85
2022/03/30 11:46:28;;;;;;;23.85;7.45;;;16.80;99.90;;;;;;5032748;28;20079;-85
2022/03/30 11:49:02;;;;;;;25.27;8.20;;;16.60;99.90;;;;;;5014586;28;20690;-83
2022/03/30 11:51:29;;;;;;;22.23;6.70;;;16.50;99.90;;;;;;5027330;28;20029;-83
2022/03/30 11:54:13;;;;;;;26.45;8.43;;;16.50;99.90;;;;;;5009626;28;20034;-86
2022/03/30 11:56:40;;;;;;;25.02;8.40;;;16.50;99.90;;;;;;5019876;28;20361;-88
2022/03/30 11:59:06;;;;;;;19.85;6.30;;;16.60;99.90;;;;;;5125496;23;20437;-86
2022/03/30 12:01:35;;;;;;;19.50;7.05;;;16.60;99.90;;;;;;5040204;28;20025;-85
2022/03/30 12:04:01;;;;;;;22.23;6.53;;;16.50;99.90;;;;;;5025406;28;20120;-85
2022/03/30 12:06:27;;;;;;;15.55;6.40;;;16.50;99.90;;;;;;5040074;28;20021;-91
2022/03/30 12:08:54;;;;;;;16.35;5.85;;;16.50;99.90;;;;;;5042609;28;20005;-89
2022/03/30 12:11:20;;;;;;;14.15;6.13;;;16.50;99.90;;;;;;5045311;28;20044;-90
2022/03/30 12:13:52;;;;;;;10.98;5.78;;;16.40;99.90;;;;;;5018317;28;20041;-87
2022/03/30 12:16:19;;;;;;;15.40;8.00;;;16.40;99.90;;;;;;5033811;28;20013;-89
2022/03/30 12:18:58;;;;;;;15.05;6.35;;;16.40;99.90;;;;;;5027059;28;20040;-90
2022/03/30 12:21:30;;;;;;;16.83;6.15;;;16.40;99.90;;;;;;5003513;28;20120;-88
2022/03/30 12:24:01;;;;;;;15.57;6.22;;;16.40;99.90;;;;;;5041134;28;20024;-86
2022/03/30 12:26:27;;;;;;;12.63;6.00;;;16.30;99.90;;;;;;5051007;28;20025;-83
2022/03/30 12:29:02;;;;;;;14.20;6.50;;;16.10;99.90;;;;;;5051350;28;20032;-91
2022/03/30 12:31:33;;;;;;;10.23;6.38;;;15.80;99.90;;;;;;5007417;28;20052;-88
2022/03/30 12:34:12;;;;;;;13.32;6.20;;;15.50;99.90;;;;;;5009493;28;20072;-87
2022/03/30 12:36:58;;;;;;;17.30;7.05;;;15.20;99.90;;;;;;5019844;28;20066;-87
2022/03/30 12:39:39;;;;;;;11.05;5.97;;;15.10;99.90;;;;;;5009136;28;20026;-88
2022/03/30 12:42:22;;;;;;;14.82;6.32;;;15.00;99.90;;;;;;5026556;28;20022;-89
2022/03/30 12:44:54;;;;;;;15.32;6.22;;;15.10;99.90;;;;;;5001726;28;20029;-87
2022/03/30 12:47:29;;;;;;;15.20;6.57;;;15.10;99.90;;;;;;5015084;28;20023;-88
2022/03/30 12:49:56;;;;;;;14.57;6.13;;;15.10;99.90;;;;;;5004281;28;20037;-88
2022/03/30 12:52:32;;;;;;;14.68;5.88;;;15.20;99.90;;;;;;5006484;28;20041;-88
2022/03/30 12:55:36;;;;;;;13.88;6.10;;;15.30;99.90;;;;;;5012586;28;20030;-85
2022/03/30 12:58:08;;;;;;;13.93;5.97;;;15.30;99.90;;;;;;5017076;28;20042;-83
2022/03/30 13:00:47;;;;;;;14.85;5.80;;;15.40;99.90;;;;;;5016852;28;20030;-83
2022/03/30 13:03:30;;;;;;;18.35;5.78;;;15.20;99.90;;;;;;5015919;28;20040;-86